Aeroporto :
LOGIN :

Iscrizione | Disclaimer

   EN    FR    IT 

 










Sommario :    VFR   VFR Marginale   IFR   IFR Intensivo   IFR Molto Intensivo
Visibilità : 
Base nubi : 
>= 8 km
>= 3000ft
5 / 8 km
1000 / 3000 ft
1500m / 5 km
500 / 1000 ft
800 / 1500m
200 / 500 ft
< 800m
< 200 ft
Simboli :   Temporali  Nebbia  Neve Forte  Precipitazioni Forti  Vento > 20 kt
SIGMETs :   Varie  Temporali  Ghiacco  Turbolenza  Onda orograficha  Ceneri Vulcaniche







- Altitudine del aeroporto : 863 ft
- Codice IATA : ZAZ


LEZG - Zaragoza Aragon

ULTIMO METAR :
  • 162000Z 27009KT 6000 OVC006 04/03 Q1018

METARs OBSOLETI :
  • 161930Z 29009KT 6000 OVC007 04/04 Q1018
  • 161900Z 27006KT 240V310 7000 OVC006 04/04 Q1018
  • 161830Z 28004KT 250V330 7000 OVC006 04/04 Q1018
  • 161818Z 27005KT 6000 OVC005 04/04 Q1018
  • 161800Z 30006KT 270V330 4000 BR OVC004 04/04 Q1017
  • 161730Z 29004KT 250V320 3000 BR OVC002 04/04 Q1017

TAF AMD TAF LEZG
Valido dal 16 a 18 ore il 17 a 18 ore UTC


161820Z 1618/1718 VRB03KT 9999 FEW020 TX12/1714Z TN03/1706Z
BECMG 1618/1621 27010KT
TEMPO 1618/1621 BKN005
PROB40
TEMPO 1710/1718 29018G30KT
Nessun NOTAM noto per questo aeroporto.



MetMap, La meteo Aeronautica in un colpo d'occhio ! - Copyright ORBIFLY Dicembre 2007 - Disclaimer

ORBIFLY MET'MAP TEAM :

Programmazione e sviluppo : Alexandra Zaïnal
Concezione e sviluppo : Baudouin d'Aumeries
Co-Programmazione e sviluppo : Marc-Olivier Méhu
Supporto tecnico e logistico : Manuel Goepfert
Aiuto per la traduzione : Arnaldo La Scala

Contatto : metmap@orbifly.com




FONTI E CREDITI :

   NOAA